Station Historical Data
Daily Summary for May 1, 2017 Units:  English    Metric   Both
Next Day »
Daily Weekly Monthly Yearly Custom
  High: Low: Average:
Temperature: 80.6 °F 54.5 °F 66.2 °F
Dew Point: 51.5 °F 32.3 °F 43.6 °F
Humidity: 69% 23% 46%
Wind Speed: 12.0mph 0.0mph 2.3mph
Wind Gust: 18.0mph - -
Wind- - SSW
Pressure: 30.11 in 29.95 in -
Precipitation: 0.00 in    
Historical Graphs
 
 
Tabular Data for May 1, 2017
Time Temperature Dew Point Pressure Wind Wind Speed Wind Gust Humidity Rainfall Rate (Hourly) solar Conditions
00:01 57.6 °F 47.5 °F 30.11 in NE 2.0 mph 2.0 mph 69% 0.00 in 0.00 W/m2
00:06 57.5 °F 47.4 °F 30.11 in NE 1.0 mph 3.0 mph 69% 0.00 in 0.00 W/m2
00:11 57.5 °F 47.4 °F 30.11 in NE 1.0 mph 3.0 mph 69% 0.00 in 0.00 W/m2
00:16 57.3 °F 46.5 °F 30.11 in ENE 3.0 mph 3.0 mph 67% 0.00 in 0.00 W/m2
00:21 57.1 °F 46.7 °F 30.10 in ENE 3.0 mph 4.0 mph 68% 0.00 in 0.00 W/m2
00:26 57.0 °F 46.6 °F 30.10 in ENE 3.0 mph 3.0 mph 68% 0.00 in 0.00 W/m2
00:31 56.9 °F 46.5 °F 30.10 in Calm     68% 0.00 in 0.00 W/m2
00:36 56.8 °F 46.0 °F 30.10 in Calm     67% 0.00 in 0.00 W/m2
00:41 56.8 °F 46.0 °F 30.10 in ENE 2.0 mph 3.0 mph 67% 0.00 in 0.00 W/m2
00:46 56.7 °F 45.5 °F 30.10 in Calm   3.0 mph 66% 0.00 in 0.00 W/m2
00:51 56.6 °F 45.4 °F 30.10 in East 2.0 mph 6.0 mph 66% 0.00 in 0.00 W/m2
00:56 56.5 °F 45.3 °F 30.10 in East 1.0 mph 6.0 mph 66% 0.00 in 0.00 W/m2
01:01 56.5 °F 45.7 °F 30.10 in East 5.0 mph 6.0 mph 67% 0.00 in 0.00 W/m2
01:06 56.3 °F 45.5 °F 30.09 in East 4.0 mph 5.0 mph 67% 0.00 in 0.00 W/m2
01:11 56.3 °F 45.5 °F 30.10 in East 2.0 mph 6.0 mph 67% 0.00 in 0.00 W/m2
01:16 56.2 °F 45.4 °F 30.09 in East 5.0 mph 5.0 mph 67% 0.00 in 0.00 W/m2
01:21 56.1 °F 45.3 °F 30.09 in East 4.0 mph 6.0 mph 67% 0.00 in 0.00 W/m2
01:26 56.0 °F 45.2 °F 30.09 in East 5.0 mph 5.0 mph 67% 0.00 in 0.00 W/m2
01:31 56.0 °F 45.2 °F 30.09 in East 2.0 mph 2.0 mph 67% 0.00 in 0.00 W/m2
01:36 56.0 °F 45.2 °F 30.09 in Calm   4.0 mph 67% 0.00 in 0.00 W/m2
01:41 56.0 °F 45.2 °F 30.09 in Calm   5.0 mph 67% 0.00 in 0.00 W/m2
01:46 55.9 °F 45.5 °F 30.09 in East 4.0 mph 5.0 mph 68% 0.00 in 0.00 W/m2
01:51 55.9 °F 45.1 °F 30.09 in East 2.0 mph 2.0 mph 67% 0.00 in 0.00 W/m2
01:56 55.8 °F 45.4 °F 30.09 in East 1.0 mph 2.0 mph 68% 0.00 in 0.00 W/m2
02:01 55.7 °F 45.7 °F 30.09 in East 2.0 mph 7.0 mph 69% 0.00 in 0.00 W/m2
02:06 55.7 °F 45.3 °F 30.08 in East 4.0 mph 6.0 mph 68% 0.00 in 0.00 W/m2
02:11 55.5 °F 44.7 °F 30.08 in East 6.0 mph 7.0 mph 67% 0.00 in 0.00 W/m2
02:17 55.5 °F 44.7 °F 30.08 in ESE 2.0 mph 6.0 mph 67% 0.00 in 0.00 W/m2
02:22 55.4 °F 44.6 °F 30.08 in East 2.0 mph 8.0 mph 67% 0.00 in 0.00 W/m2
02:27 55.4 °F 43.8 °F 30.08 in East 3.0 mph 4.0 mph 65% 0.00 in 0.00 W/m2
02:32 55.3 °F 43.8 °F 30.08 in East 4.0 mph 6.0 mph 65% 0.00 in 0.00 W/m2
02:37 55.4 °F 43.4 °F 30.08 in East 2.0 mph 5.0 mph 64% 0.00 in 0.00 W/m2
02:42 55.4 °F 43.8 °F 30.08 in East 4.0 mph 6.0 mph 65% 0.00 in 0.00 W/m2
02:47 55.4 °F 43.4 °F 30.08 in East 3.0 mph 3.0 mph 64% 0.00 in 0.00 W/m2
02:52 55.4 °F 43.4 °F 30.08 in East 3.0 mph 5.0 mph 64% 0.00 in 0.00 W/m2
02:57 55.3 °F 42.5 °F 30.08 in ENE 4.0 mph 5.0 mph 62% 0.00 in 0.00 W/m2
03:02 55.2 °F 42.0 °F 30.08 in NE 5.0 mph 6.0 mph 61% 0.00 in 0.00 W/m2
03:07 55.2 °F 41.1 °F 30.08 in ENE 3.0 mph 8.0 mph 59% 0.00 in 0.00 W/m2
03:12 55.3 °F 40.3 °F 30.08 in ENE 2.0 mph 10.0 mph 57% 0.00 in 0.00 W/m2
03:17 55.4 °F 39.0 °F 30.08 in NE 1.0 mph 6.0 mph 54% 0.00 in 0.00 W/m2
03:22 55.5 °F 38.2 °F 30.08 in Calm   6.0 mph 52% 0.00 in 0.00 W/m2
03:27 55.7 °F 35.3 °F 30.08 in ENE 2.0 mph 10.0 mph 46% 0.00 in 0.00 W/m2
03:32 56.0 °F 36.6 °F 30.08 in NE 3.0 mph 7.0 mph 48% 0.00 in 0.00 W/m2
03:37 56.3 °F 32.3 °F 30.08 in NE 2.0 mph 4.0 mph 40% 0.00 in 0.00 W/m2
03:42 56.7 °F 34.5 °F 30.08 in Calm   10.0 mph 43% 0.00 in 0.00 W/m2
03:47 57.0 °F 32.3 °F 30.08 in NE 2.0 mph 5.0 mph 39% 0.00 in 0.00 W/m2
03:52 57.3 °F 33.8 °F 30.08 in Calm   3.0 mph 41% 0.00 in 0.00 W/m2
03:58 57.6 °F 36.4 °F 30.08 in Calm   1.0 mph 45% 0.00 in 0.00 W/m2
04:03 57.5 °F 36.9 °F 30.08 in Calm     46% 0.00 in 0.00 W/m2
04:08 57.2 °F 36.6 °F 30.08 in Calm     46% 0.00 in 0.00 W/m2
04:13 57.0 °F 36.4 °F 30.08 in Calm   2.0 mph 46% 0.00 in 0.00 W/m2
04:18 56.8 °F 36.8 °F 30.08 in Calm   4.0 mph 47% 0.00 in 0.00 W/m2
04:23 56.6 °F 37.2 °F 30.08 in NE 2.0 mph 4.0 mph 48% 0.00 in 0.00 W/m2
04:28 56.4 °F 37.0 °F 30.08 in NE 3.0 mph 4.0 mph 48% 0.00 in 0.00 W/m2
04:33 56.2 °F 37.8 °F 30.08 in NE 3.0 mph 3.0 mph 50% 0.00 in 0.00 W/m2
04:38 56.0 °F 38.6 °F 30.08 in NE 1.0 mph 3.0 mph 52% 0.00 in 0.00 W/m2
04:43 55.9 °F 38.0 °F 30.08 in NE 2.0 mph 4.0 mph 51% 0.00 in 0.00 W/m2
04:48 55.8 °F 38.5 °F 30.08 in Calm   4.0 mph 52% 0.00 in 0.00 W/m2
04:53 55.7 °F 38.4 °F 30.08 in NE 2.0 mph 3.0 mph 52% 0.00 in 0.00 W/m2
04:58 55.5 °F 38.2 °F 30.08 in Calm   4.0 mph 52% 0.00 in 0.00 W/m2
05:03 55.4 °F 38.1 °F 30.08 in NE 1.0 mph 4.0 mph 52% 0.00 in 0.00 W/m2
05:08 55.4 °F 39.0 °F 30.08 in NE 1.0 mph 5.0 mph 54% 0.00 in 0.00 W/m2
05:13 55.3 °F 38.5 °F 30.08 in Calm   6.0 mph 53% 0.00 in 0.00 W/m2
05:18 55.2 °F 37.4 °F 30.08 in NE 2.0 mph 6.0 mph 51% 0.00 in 0.00 W/m2
05:23 55.1 °F 38.8 °F 30.08 in Calm   3.0 mph 54% 0.00 in 0.00 W/m2
05:28 55.0 °F 38.7 °F 30.08 in Calm     54% 0.00 in 0.00 W/m2
05:33 54.9 °F 39.5 °F 30.08 in NE 1.0 mph 4.0 mph 56% 0.00 in 0.00 W/m2
05:38 54.7 °F 38.9 °F 30.08 in Calm   2.0 mph 55% 0.00 in 0.00 W/m2
05:43 54.6 °F 37.3 °F 30.08 in Calm   3.0 mph 52% 0.00 in 0.00 W/m2
05:48 54.5 °F 36.8 °F 30.08 in Calm   4.0 mph 51% 0.00 in 0.00 W/m2
05:53 54.5 °F 35.2 °F 30.08 in Calm   3.0 mph 48% 0.00 in 0.00 W/m2
05:58 54.5 °F 34.7 °F 30.08 in NE 2.0 mph 4.0 mph 47% 0.00 in 0.00 W/m2
06:03 54.5 °F 34.7 °F 30.08 in Calm   3.0 mph 47% 0.00 in 5.00 W/m2
06:08 54.6 °F 34.2 °F 30.08 in Calm   4.0 mph 46% 0.00 in 7.00 W/m2
06:13 54.7 °F 33.8 °F 30.08 in NE 1.0 mph 4.0 mph 45% 0.00 in 9.00 W/m2
06:18 54.8 °F 34.4 °F 30.08 in NE 2.0 mph 6.0 mph 46% 0.00 in 12.00 W/m2
06:23 54.9 °F 33.4 °F 30.08 in NE 4.0 mph 4.0 mph 44% 0.00 in 14.00 W/m2
06:28 55.0 °F 34.1 °F 30.08 in Calm   5.0 mph 45% 0.00 in 16.00 W/m2
06:29 55.1 °F 34.2 °F 30.08 in Calm   5.0 mph 45% 0.00 in 18.00 W/m2
06:34 55.2 °F 34.2 °F 30.08 in Calm   3.0 mph 45% 0.00 in 23.00 W/m2
06:39 55.3 °F 34.9 °F 30.08 in Calm   1.0 mph 46% 0.00 in 35.00 W/m2
06:44 55.3 °F 36.5 °F 30.08 in Calm   2.0 mph 49% 0.00 in 49.00 W/m2
06:49 55.1 °F 35.8 °F 30.08 in Calm     48% 0.00 in 63.00 W/m2
06:54 55.1 °F 34.7 °F 30.08 in Calm     46% 0.00 in 79.00 W/m2
06:59 55.1 °F 34.2 °F 30.08 in Calm     45% 0.00 in 97.00 W/m2
07:04 55.2 °F 35.9 °F 30.08 in NE 2.0 mph 3.0 mph 48% 0.00 in 116.00 W/m2
07:09 55.3 °F 35.4 °F 30.08 in Calm   2.0 mph 47% 0.00 in 135.00 W/m2
07:14 55.3 °F 36.0 °F 30.08 in NE 2.0 mph 2.0 mph 48% 0.00 in 153.00 W/m2
07:19 55.4 °F 37.1 °F 30.09 in Calm   3.0 mph 50% 0.00 in 174.00 W/m2
07:24 55.4 °F 37.1 °F 30.09 in NE 2.0 mph 3.0 mph 50% 0.00 in 197.00 W/m2
07:27 55.5 °F 38.2 °F 30.09 in Calm   1.0 mph 52% 0.00 in 209.00 W/m2
07:32 55.5 °F 37.2 °F 30.08 in Calm   5.0 mph 50% 0.00 in 230.00 W/m2
07:37 55.6 °F 38.8 °F 30.09 in NE 2.0 mph 4.0 mph 53% 0.00 in 253.00 W/m2
07:42 55.8 °F 39.4 °F 30.08 in Calm   3.0 mph 54% 0.00 in 276.00 W/m2
07:47 55.9 °F 39.5 °F 30.09 in Calm   5.0 mph 54% 0.00 in 295.00 W/m2
07:52 56.0 °F 39.6 °F 30.08 in ENE 2.0 mph 2.0 mph 54% 0.00 in 315.00 W/m2
07:57 56.1 °F 39.7 °F 30.09 in Calm     54% 0.00 in 332.00 W/m2
08:02 56.3 °F 40.4 °F 30.09 in Calm     55% 0.00 in 346.00 W/m2
08:07 56.6 °F 39.7 °F 30.09 in Calm     53% 0.00 in 364.00 W/m2
08:12 57.0 °F 39.6 °F 30.09 in Calm     52% 0.00 in 383.00 W/m2
08:17 57.4 °F 39.4 °F 30.08 in ENE 3.0 mph 5.0 mph 51% 0.00 in 399.00 W/m2
08:22 57.8 °F 38.8 °F 30.08 in Calm     49% 0.00 in 418.00 W/m2
08:27 58.2 °F 39.7 °F 30.08 in Calm   1.0 mph 50% 0.00 in 434.00 W/m2
08:32 58.5 °F 40.5 °F 30.08 in Calm     51% 0.00 in 452.00 W/m2
08:37 58.9 °F 41.8 °F 30.08 in Calm     53% 0.00 in 468.00 W/m2
08:42 59.1 °F 42.0 °F 30.08 in Calm     53% 0.00 in 482.00 W/m2
08:47 59.4 °F 43.7 °F 30.08 in Calm     56% 0.00 in 499.00 W/m2
08:52 59.7 °F 40.5 °F 30.08 in Calm   2.0 mph 49% 0.00 in 517.00 W/m2
08:57 60.0 °F 40.8 °F 30.08 in Calm   2.0 mph 49% 0.00 in 531.00 W/m2
09:02 60.3 °F 38.9 °F 30.08 in Calm     45% 0.00 in 547.00 W/m2
09:07 60.5 °F 40.2 °F 30.08 in Calm     47% 0.00 in 564.00 W/m2
09:13 60.7 °F 39.3 °F 30.08 in Calm     45% 0.00 in 577.00 W/m2
09:18 61.0 °F 37.2 °F 30.08 in Calm     41% 0.00 in 594.00 W/m2
09:23 61.6 °F 41.7 °F 30.08 in Calm     48% 0.00 in 610.00 W/m2
09:28 62.2 °F 38.8 °F 30.08 in NE 2.0 mph 2.0 mph 42% 0.00 in 624.00 W/m2
09:33 62.7 °F 38.0 °F 30.08 in Calm     40% 0.00 in 636.00 W/m2
09:38 63.4 °F 41.1 °F 30.07 in ENE 5.0 mph 5.0 mph 44% 0.00 in 652.00 W/m2
09:43 63.9 °F 43.8 °F 30.08 in Calm   2.0 mph 48% 0.00 in 668.00 W/m2
09:44 64.0 °F 43.4 °F 30.08 in Calm   2.0 mph 47% 0.00 in 671.00 W/m2
09:49 64.7 °F 43.5 °F 30.07 in Calm   9.0 mph 46% 0.00 in 686.00 W/m2
09:54 65.1 °F 42.1 °F 30.08 in NW 3.0 mph 6.0 mph 43% 0.00 in 700.00 W/m2
09:59 65.6 °F 40.0 °F 30.08 in Calm   7.0 mph 39% 0.00 in 712.00 W/m2
10:04 66.2 °F 41.2 °F 30.07 in NW 4.0 mph 6.0 mph 40% 0.00 in 722.00 W/m2
10:09 66.5 °F 40.1 °F 30.07 in Calm   5.0 mph 38% 0.00 in 737.00 W/m2
10:14 67.0 °F 41.2 °F 30.07 in Calm   4.0 mph 39% 0.00 in 751.00 W/m2
10:19 67.4 °F 38.8 °F 30.07 in NW 2.0 mph 4.0 mph 35% 0.00 in 761.00 W/m2
10:24 67.8 °F 39.2 °F 30.07 in Calm   7.0 mph 35% 0.00 in 773.00 W/m2
10:29 68.3 °F 38.9 °F 30.07 in NNW 3.0 mph 4.0 mph 34% 0.00 in 786.00 W/m2
10:34 68.8 °F 37.8 °F 30.06 in Calm   9.0 mph 32% 0.00 in 796.00 W/m2
10:39 69.3 °F 38.2 °F 30.07 in North 5.0 mph 11.0 mph 32% 0.00 in 809.00 W/m2
10:44 69.9 °F 37.9 °F 30.06 in NNE 4.0 mph 14.0 mph 31% 0.00 in 817.00 W/m2
10:49 70.3 °F 39.1 °F 30.06 in NNW 2.0 mph 10.0 mph 32% 0.00 in 826.00 W/m2
10:54 70.9 °F 39.6 °F 30.06 in NNE 6.0 mph 13.0 mph 32% 0.00 in 837.00 W/m2
10:59 71.6 °F 37.7 °F 30.07 in North 2.0 mph 12.0 mph 29% 0.00 in 847.00 W/m2
11:05 72.0 °F 39.7 °F 30.06 in Calm   11.0 mph 31% 0.00 in 854.00 W/m2
11:10 72.4 °F 40.1 °F 30.06 in ENE 5.0 mph 7.0 mph 31% 0.00 in 863.00 W/m2
11:15 72.9 °F 37.0 °F 30.06 in NE 8.0 mph 9.0 mph 27% 0.00 in 874.00 W/m2
11:20 73.5 °F 38.4 °F 30.06 in North 3.0 mph 11.0 mph 28% 0.00 in 882.00 W/m2
11:25 73.8 °F 37.8 °F 30.06 in NNE 6.0 mph 9.0 mph 27% 0.00 in 889.00 W/m2
11:30 74.1 °F 39.0 °F 30.06 in NE 7.0 mph 12.0 mph 28% 0.00 in 895.00 W/m2
11:35 74.4 °F 36.3 °F 30.06 in North 4.0 mph 10.0 mph 25% 0.00 in 902.00 W/m2
11:40 74.8 °F 36.7 °F 30.06 in North 6.0 mph 12.0 mph 25% 0.00 in 909.00 W/m2
11:45 75.2 °F 38.0 °F 30.06 in NNE 4.0 mph 14.0 mph 26% 0.00 in 916.00 W/m2
11:50 75.7 °F 39.4 °F 30.06 in NE 7.0 mph 11.0 mph 27% 0.00 in 919.00 W/m2
11:55 76.0 °F 37.7 °F 30.06 in NNW 3.0 mph 12.0 mph 25% 0.00 in 925.00 W/m2
12:00 76.4 °F 37.0 °F 30.05 in North 5.0 mph 16.0 mph 24% 0.00 in 928.00 W/m2
12:05 76.8 °F 38.3 °F 30.05 in NNW 2.0 mph 10.0 mph 25% 0.00 in 937.00 W/m2
12:10 77.1 °F 36.5 °F 30.05 in NNW 5.0 mph 13.0 mph 23% 0.00 in 942.00 W/m2
12:15 77.3 °F 37.7 °F 30.05 in NNE 11.0 mph 17.0 mph 24% 0.00 in 942.00 W/m2
12:20 77.5 °F 36.8 °F 30.05 in North 11.0 mph 14.0 mph 23% 0.00 in 946.00 W/m2
12:25 77.8 °F 38.2 °F 30.04 in North 2.0 mph 15.0 mph 24% 0.00 in 947.00 W/m2
12:30 78.1 °F 37.3 °F 30.04 in NW 3.0 mph 12.0 mph 23% 0.00 in 951.00 W/m2
12:32 78.1 °F 38.4 °F 30.04 in Calm   4.0 mph 24% 0.00 in 949.00 W/m2
12:37 78.4 °F 37.6 °F 30.03 in NNW 1.0 mph 10.0 mph 23% 0.00 in 951.00 W/m2
12:42 78.7 °F 41.0 °F 30.03 in WNW 6.0 mph 6.0 mph 26% 0.00 in 953.00 W/m2
12:47 79.0 °F 39.2 °F 30.03 in NNW 8.0 mph 12.0 mph 24% 0.00 in 954.00 W/m2
12:52 79.2 °F 39.3 °F 30.03 in NNW 7.0 mph 13.0 mph 24% 0.00 in 954.00 W/m2
12:57 79.2 °F 39.3 °F 30.03 in NNW 7.0 mph 11.0 mph 24% 0.00 in 954.00 W/m2
13:02 79.4 °F 40.5 °F 30.03 in Calm   5.0 mph 25% 0.00 in 953.00 W/m2
13:04 79.6 °F 40.7 °F 30.02 in NNE 6.0 mph 10.0 mph 25% 0.00 in 954.00 W/m2
13:09 80.0 °F 40.0 °F 30.02 in Calm   10.0 mph 24% 0.00 in 953.00 W/m2
13:14 80.3 °F 39.2 °F 30.02 in NNW 8.0 mph 8.0 mph 23% 0.00 in 953.00 W/m2
13:19 80.3 °F 40.3 °F 30.02 in NW 10.0 mph 10.0 mph 24% 0.00 in 951.00 W/m2
13:24 80.2 °F 39.1 °F 30.02 in NNW 2.0 mph 5.0 mph 23% 0.00 in 946.00 W/m2
13:29 80.4 °F 41.4 °F 30.02 in WNW 6.0 mph 9.0 mph 25% 0.00 in 944.00 W/m2
13:34 80.6 °F 47.2 °F 30.01 in WNW 3.0 mph 8.0 mph 31% 0.00 in 939.00 W/m2
13:39 80.6 °F 48.0 °F 30.01 in Calm   6.0 mph 32% 0.00 in 933.00 W/m2
13:44 80.3 °F 46.1 °F 30.01 in NW 2.0 mph 11.0 mph 30% 0.00 in 935.00 W/m2
13:49 80.0 °F 47.5 °F 30.01 in West 3.0 mph 9.0 mph 32% 0.00 in 926.00 W/m2
13:54 79.6 °F 48.0 °F 30.01 in WNW 1.0 mph 6.0 mph 33% 0.00 in 925.00 W/m2
13:59 79.2 °F 48.4 °F 30.00 in Calm   9.0 mph 34% 0.00 in 918.00 W/m2
14:04 79.1 °F 48.3 °F 30.01 in NW 6.0 mph 11.0 mph 34% 0.00 in 914.00 W/m2
14:09 79.0 °F 48.3 °F 30.01 in NW 4.0 mph 10.0 mph 34% 0.00 in 907.00 W/m2
14:14 78.9 °F 49.0 °F 30.00 in NW 7.0 mph 12.0 mph 35% 0.00 in 898.00 W/m2
14:19 78.4 °F 49.3 °F 30.00 in NNW 5.0 mph 11.0 mph 36% 0.00 in 889.00 W/m2
14:24 77.8 °F 49.5 °F 30.00 in NNW 1.0 mph 12.0 mph 37% 0.00 in 884.00 W/m2
14:29 77.4 °F 49.8 °F 30.00 in WNW 5.0 mph 10.0 mph 38% 0.00 in 872.00 W/m2
14:34 77.2 °F 50.3 °F 30.00 in WNW 3.0 mph 10.0 mph 39% 0.00 in 868.00 W/m2
14:39 77.1 °F 49.6 °F 30.00 in NW 4.0 mph 14.0 mph 38% 0.00 in 861.00 W/m2
14:44 77.3 °F 49.7 °F 30.00 in Calm   14.0 mph 38% 0.00 in 851.00 W/m2
14:49 77.5 °F 49.2 °F 30.00 in NW 7.0 mph 14.0 mph 37% 0.00 in 840.00 W/m2
14:54 77.5 °F 49.9 °F 30.00 in West 3.0 mph 13.0 mph 38% 0.00 in 833.00 W/m2
15:00 77.2 °F 48.9 °F 30.00 in NW 7.0 mph 12.0 mph 37% 0.00 in 823.00 W/m2
15:05 76.9 °F 48.7 °F 30.00 in NW 6.0 mph 17.0 mph 37% 0.00 in 814.00 W/m2
15:10 76.7 °F 48.5 °F 30.00 in NNW 5.0 mph 14.0 mph 37% 0.00 in 803.00 W/m2
15:15 76.4 °F 46.8 °F 30.00 in WNW 7.0 mph 17.0 mph 35% 0.00 in 791.00 W/m2
15:20 76.3 °F 47.4 °F 30.00 in NW 6.0 mph 15.0 mph 36% 0.00 in 780.00 W/m2
15:25 76.3 °F 46.7 °F 30.00 in NW 2.0 mph 14.0 mph 35% 0.00 in 770.00 W/m2
15:30 76.1 °F 47.2 °F 30.00 in WNW 1.0 mph 14.0 mph 36% 0.00 in 759.00 W/m2
15:35 76.1 °F 48.0 °F 30.00 in West 3.0 mph 12.0 mph 37% 0.00 in 747.00 W/m2
15:40 76.2 °F 47.3 °F 30.00 in WSW 3.0 mph 12.0 mph 36% 0.00 in 737.00 W/m2
15:45 76.2 °F 47.3 °F 30.00 in WSW 5.0 mph 11.0 mph 36% 0.00 in 724.00 W/m2
15:50 76.3 °F 47.4 °F 30.00 in NW 1.0 mph 14.0 mph 36% 0.00 in 710.00 W/m2
15:55 76.4 °F 46.8 °F 29.99 in NW 7.0 mph 11.0 mph 35% 0.00 in 694.00 W/m2
16:00 76.5 °F 47.6 °F 29.99 in Calm   9.0 mph 36% 0.00 in 684.00 W/m2
16:05 76.5 °F 47.6 °F 29.99 in WNW 2.0 mph 13.0 mph 36% 0.00 in 671.00 W/m2
16:10 76.6 °F 48.4 °F 29.99 in Calm   9.0 mph 37% 0.00 in 656.00 W/m2
16:15 76.7 °F 47.8 °F 29.99 in NW 2.0 mph 12.0 mph 36% 0.00 in 645.00 W/m2
16:20 76.9 °F 48.7 °F 29.99 in NNW 11.0 mph 13.0 mph 37% 0.00 in 631.00 W/m2
16:25 77.0 °F 47.3 °F 29.98 in Calm   13.0 mph 35% 0.00 in 613.00 W/m2
16:30 77.1 °F 47.4 °F 29.98 in NW 1.0 mph 10.0 mph 35% 0.00 in 605.00 W/m2
16:35 77.0 °F 45.7 °F 29.98 in NW 12.0 mph 12.0 mph 33% 0.00 in 589.00 W/m2
16:40 76.9 °F 46.4 °F 29.98 in Calm   11.0 mph 34% 0.00 in 571.00 W/m2
16:45 76.9 °F 47.2 °F 29.98 in NW 5.0 mph 11.0 mph 35% 0.00 in 557.00 W/m2
16:50 77.0 °F 47.3 °F 29.98 in NW 1.0 mph 10.0 mph 35% 0.00 in 541.00 W/m2
16:55 77.0 °F 47.3 °F 29.98 in WNW 12.0 mph 12.0 mph 35% 0.00 in 527.00 W/m2
17:00 77.1 °F 47.4 °F 29.98 in WNW 6.0 mph 13.0 mph 35% 0.00 in 506.00 W/m2
17:05 77.1 °F 46.6 °F 29.98 in NW 3.0 mph 17.0 mph 34% 0.00 in 496.00 W/m2
17:10 77.1 °F 45.8 °F 29.98 in Calm   16.0 mph 33% 0.00 in 482.00 W/m2
17:15 77.1 °F 47.4 °F 29.98 in NW 4.0 mph 14.0 mph 35% 0.00 in 464.00 W/m2
17:20 77.2 °F 45.9 °F 29.97 in North 4.0 mph 16.0 mph 33% 0.00 in 446.00 W/m2
17:25 77.3 °F 46.8 °F 29.97 in NNW 8.0 mph 15.0 mph 34% 0.00 in 425.00 W/m2
17:30 77.2 °F 45.1 °F 29.97 in NW 3.0 mph 18.0 mph 32% 0.00 in 415.00 W/m2
17:35 77.2 °F 45.9 °F 29.97 in North 3.0 mph 11.0 mph 33% 0.00 in 397.00 W/m2
17:40 77.2 °F 46.7 °F 29.97 in NW 4.0 mph 9.0 mph 34% 0.00 in 381.00 W/m2
17:45 77.2 °F 46.7 °F 29.97 in West 2.0 mph 11.0 mph 34% 0.00 in 362.00 W/m2
17:50 77.2 °F 48.2 °F 29.97 in NW 3.0 mph 11.0 mph 36% 0.00 in 345.00 W/m2
17:55 77.1 °F 48.1 °F 29.97 in Calm   6.0 mph 36% 0.00 in 329.00 W/m2
18:00 77.0 °F 47.3 °F 29.97 in NW 11.0 mph 13.0 mph 35% 0.00 in 311.00 W/m2
18:05 76.9 °F 47.2 °F 29.97 in WNW 6.0 mph 10.0 mph 35% 0.00 in 295.00 W/m2
18:10 76.8 °F 47.8 °F 29.97 in WNW 2.0 mph 8.0 mph 36% 0.00 in 276.00 W/m2
18:15 76.7 °F 48.5 °F 29.97 in Calm   12.0 mph 37% 0.00 in 258.00 W/m2
18:21 76.6 °F 47.7 °F 29.96 in Calm   8.0 mph 36% 0.00 in 246.00 W/m2
18:26 76.4 °F 48.2 °F 29.97 in Calm   11.0 mph 37% 0.00 in 227.00 W/m2
18:31 76.2 °F 48.0 °F 29.97 in Calm   6.0 mph 37% 0.00 in 209.00 W/m2
18:36 75.9 °F 49.2 °F 29.97 in WNW 1.0 mph 9.0 mph 39% 0.00 in 183.00 W/m2
18:41 75.7 °F 46.9 °F 29.97 in WNW 1.0 mph 7.0 mph 36% 0.00 in 179.00 W/m2
18:46 75.6 °F 51.5 °F 29.96 in NW 1.0 mph 9.0 mph 43% 0.00 in 158.00 W/m2
18:51 75.3 °F 50.0 °F 29.96 in NW 6.0 mph 8.0 mph 41% 0.00 in 135.00 W/m2
18:56 74.9 °F 50.9 °F 29.96 in NNW 3.0 mph 3.0 mph 43% 0.00 in 111.00 W/m2
19:01 74.3 °F 50.4 °F 29.96 in NW 4.0 mph 8.0 mph 43% 0.00 in 35.00 W/m2
19:06 73.9 °F 49.4 °F 29.97 in NW 3.0 mph 10.0 mph 42% 0.00 in 39.00 W/m2
19:11 73.5 °F 49.7 °F 29.97 in NNW 10.0 mph 10.0 mph 43% 0.00 in 63.00 W/m2
19:16 73.1 °F 49.9 °F 29.97 in Calm     44% 0.00 in 54.00 W/m2
19:21 72.8 °F 50.2 °F 29.97 in NNW 4.0 mph 8.0 mph 45% 0.00 in 40.00 W/m2
19:26 72.4 °F 49.9 °F 29.97 in NW 9.0 mph 9.0 mph 45% 0.00 in 30.00 W/m2
19:31 72.0 °F 49.5 °F 29.97 in NNW 5.0 mph 10.0 mph 45% 0.00 in 21.00 W/m2
19:36 71.7 °F 49.2 °F 29.97 in NNW 3.0 mph 7.0 mph 45% 0.00 in 16.00 W/m2
19:41 71.4 °F 49.6 °F 29.96 in NNW 1.0 mph 6.0 mph 46% 0.00 in 12.00 W/m2
19:46 71.2 °F 49.4 °F 29.96 in NNW 2.0 mph 5.0 mph 46% 0.00 in 11.00 W/m2
19:51 70.9 °F 49.1 °F 29.96 in NNW 2.0 mph 5.0 mph 46% 0.00 in 9.00 W/m2
19:56 70.6 °F 49.4 °F 29.96 in NNW 2.0 mph 2.0 mph 47% 0.00 in 5.00 W/m2
20:01 70.4 °F 49.2 °F 29.96 in NNW 2.0 mph 5.0 mph 47% 0.00 in 0.00 W/m2
20:06 70.1 °F 49.5 °F 29.95 in NNW 1.0 mph 6.0 mph 48% 0.00 in 0.00 W/m2
20:11 69.7 °F 49.2 °F 29.95 in Calm   1.0 mph 48% 0.00 in 0.00 W/m2
20:16 69.4 °F 50.5 °F 29.95 in NNW 2.0 mph 3.0 mph 51% 0.00 in 0.00 W/m2
20:21 69.1 °F 49.7 °F 29.95 in NNW 1.0 mph 5.0 mph 50% 0.00 in 0.00 W/m2
20:26 68.7 °F 49.3 °F 29.95 in Calm     50% 0.00 in 0.00 W/m2
20:31 68.4 °F 49.1 °F 29.95 in NNW 2.0 mph 2.0 mph 50% 0.00 in 0.00 W/m2
20:36 68.1 °F 48.8 °F 29.96 in Calm   1.0 mph 50% 0.00 in 0.00 W/m2
20:41 67.8 °F 49.0 °F 29.96 in NNW 1.0 mph 3.0 mph 51% 0.00 in 0.00 W/m2
20:46 67.5 °F 49.3 °F 29.96 in Calm     52% 0.00 in 0.00 W/m2
20:51 67.2 °F 49.5 °F 29.96 in NNW 3.0 mph 3.0 mph 53% 0.00 in 0.00 W/m2
20:56 67.1 °F 49.9 °F 29.97 in NNW 2.0 mph 2.0 mph 54% 0.00 in 0.00 W/m2
21:01 67.0 °F 49.3 °F 29.97 in NNW 1.0 mph 3.0 mph 53% 0.00 in 0.00 W/m2
21:06 66.8 °F 49.1 °F 29.97 in NNW 2.0 mph 3.0 mph 53% 0.00 in 0.00 W/m2
21:11 66.8 °F 49.1 °F 29.97 in NNW 3.0 mph 9.0 mph 53% 0.00 in 0.00 W/m2
21:14 66.8 °F 49.1 °F 29.97 in NNW 5.0 mph 9.0 mph 53% 0.00 in 0.00 W/m2
21:19 66.8 °F 49.1 °F 29.97 in NNW 2.0 mph 9.0 mph 53% 0.00 in 0.00 W/m2
21:25 66.8 °F 49.1 °F 29.97 in NNW 7.0 mph 8.0 mph 53% 0.00 in 0.00 W/m2
21:30 66.8 °F 49.1 °F 29.97 in North 6.0 mph 7.0 mph 53% 0.00 in 0.00 W/m2
21:35 66.7 °F 49.0 °F 29.97 in North 1.0 mph 7.0 mph 53% 0.00 in 0.00 W/m2
21:40 66.7 °F 49.5 °F 29.97 in North 2.0 mph 6.0 mph 54% 0.00 in 0.00 W/m2
21:45 66.7 °F 49.0 °F 29.97 in North 1.0 mph 5.0 mph 53% 0.00 in 0.00 W/m2
21:50 66.5 °F 49.4 °F 29.97 in North 5.0 mph 6.0 mph 54% 0.00 in 0.00 W/m2
21:55 66.3 °F 49.2 °F 29.97 in North 5.0 mph 6.0 mph 54% 0.00 in 0.00 W/m2
22:00 66.0 °F 49.4 °F 29.97 in Calm   4.0 mph 55% 0.00 in 0.00 W/m2
22:05 65.8 °F 49.2 °F 29.97 in Calm   3.0 mph 55% 0.00 in 0.00 W/m2
22:10 65.6 °F 49.0 °F 29.97 in Calm   3.0 mph 55% 0.00 in 0.00 W/m2
22:15 65.6 °F 49.5 °F 29.97 in Calm     56% 0.00 in 0.00 W/m2
22:20 65.5 °F 48.9 °F 29.97 in Calm     55% 0.00 in 0.00 W/m2
22:25 65.3 °F 49.7 °F 29.97 in Calm     57% 0.00 in 0.00 W/m2
22:30 65.2 °F 49.6 °F 29.97 in Calm     57% 0.00 in 0.00 W/m2
22:35 65.1 °F 49.5 °F 29.97 in Calm     57% 0.00 in 0.00 W/m2
22:40 64.8 °F 49.2 °F 29.97 in Calm     57% 0.00 in 0.00 W/m2
22:45 64.5 °F 49.0 °F 29.97 in Calm     57% 0.00 in 0.00 W/m2
22:50 64.3 °F 49.2 °F 29.97 in Calm     58% 0.00 in 0.00 W/m2
22:55 64.2 °F 49.6 °F 29.97 in Calm     59% 0.00 in 0.00 W/m2
23:00 64.1 °F 49.0 °F 29.97 in Calm     58% 0.00 in 0.00 W/m2
23:05 64.1 °F 49.0 °F 29.97 in Calm   1.0 mph 58% 0.00 in 0.00 W/m2
23:10 64.0 °F 48.9 °F 29.97 in Calm   2.0 mph 58% 0.00 in 0.00 W/m2
23:15 63.8 °F 49.2 °F 29.97 in Calm   2.0 mph 59% 0.00 in 0.00 W/m2
23:16 63.7 °F 49.1 °F 29.97 in Calm     59% 0.00 in 0.00 W/m2
23:21 63.5 °F 49.4 °F 29.97 in Calm     60% 0.00 in 0.00 W/m2
23:22 63.5 °F 49.4 °F 29.97 in Calm     60% 0.00 in 0.00 W/m2
23:27 63.4 °F 49.3 °F 29.96 in Calm     60% 0.00 in 0.00 W/m2
23:32 63.3 °F 49.2 °F 29.96 in Calm   2.0 mph 60% 0.00 in 0.00 W/m2
23:37 63.2 °F 49.1 °F 29.96 in Calm   2.0 mph 60% 0.00 in 0.00 W/m2
23:42 63.2 °F 48.7 °F 29.96 in NE 1.0 mph 1.0 mph 59% 0.00 in 0.00 W/m2
23:47 63.1 °F 49.0 °F 29.96 in Calm   2.0 mph 60% 0.00 in 0.00 W/m2
23:52 63.0 °F 48.5 °F 29.96 in Calm   1.0 mph 59% 0.00 in 0.00 W/m2
23:57 62.9 °F 48.4 °F 29.96 in ENE 3.0 mph 3.0 mph 59% 0.00 in 0.00 W/m2
Foresthill Weather
 WU-history PHP script courtesy of   Juneau County Weather.
powered by Cumulus v1.9.3 (1059)
Ambient Weather VWS v14.00
Top Contact Website Map Copyright © 2007 - 2018 Foresthillweather.com Never base important decisions on this or any weather information obtained from the Internet